Overview Statistics Trail Chart Weather Telemetry Raw packets
 

This is the latest recevied weather packets stored in our database for station/object DF1GD-10. If no packets are shown the sender has not sent any weather packets the latest 10 day(s).

<< 6 7 8 9 10 11 12 >>
Time Temp. Humidity Pressure Rain* Wind** Luminosity Snow
1788532117 33.33° C 17% 1013.9 hPa - - - -
1788531217 33.33° C 18% 1014.1 hPa - - - -
1788530317 33.33° C 18% 1014.4 hPa - - - -
1788529417 32.78° C 19% 1014.5 hPa - - - -
1788528516 29.44° C 23% 1014.7 hPa - - - -
1788527616 28.33° C 26% 1014.9 hPa - - - -
1788526716 27.22° C 28% 1015 hPa - - - -
1788525816 26.67° C 28% 1015.1 hPa - - - -
1788524916 26.11° C 28% 1015.4 hPa - - - -
1788524016 26.11° C 30% 1015.6 hPa - - - -
1788523116 26.11° C 30% 1015.8 hPa - - - -
1788522216 27.22° C 28% 1016 hPa - - - -
1788521315 26.67° C 28% 1016.3 hPa - - - -
1788520415 27.78° C 26% 1016.5 hPa - - - -
1788519515 27.78° C 27% 1016.7 hPa - - - -
1788518615 24.44° C 33% 1016.9 hPa - - - -
1788517715 23.89° C 34% 1017.2 hPa - - - -
1788516815 23.89° C 33% 1017.4 hPa - - - -
1788515914 23.89° C 33% 1017.7 hPa - - - -
1788515014 23.89° C 33% 1017.9 hPa - - - -
1788514114 21.67° C 36% 1018.2 hPa - - - -
1788513214 21.67° C 38% 1018.1 hPa - - - -
1788512314 21.11° C 40% 1018.2 hPa - - - -
1788510514 20° C 41% 1018.4 hPa - - - -
1788509613 19.44° C 40% 1018.5 hPa - - - -

* Rain since midnight (hover to see other rain measurements)
** Current wind speed in m/s (hover to see current wind gust speed)